Time;durP1;ratioP1;P1;durP2;ratioP2;P2;SDS_P1;SDS_P2;PMS_P1;PMS_P2;Temp;Humidity;BMP_temperature;BMP_pressure;BME280_temperature;BME280_humidity;BME280_pressure;Samples;Min_cycle;Max_cycle;Signal;HPM_P1;HPM_P2
2022/01/03 00:00:11;;;;;;;24.47;19.10;;;7.80;1.00;;;;;;5092046;28;20286;-74
2022/01/03 00:02:40;;;;;;;28.70;20.37;;;7.90;1.00;;;;;;5091528;28;20206;-75
2022/01/03 00:05:08;;;;;;;24.43;19.00;;;8.00;99.90;;;;;;5092068;28;20634;-74
2022/01/03 00:07:38;;;;;;;25.83;19.03;;;8.00;99.90;;;;;;5091710;28;20201;-75
2022/01/03 00:10:07;;;;;;;30.40;20.73;;;8.00;58.50;;;;;;5092106;28;20503;-75
2022/01/03 00:12:34;;;;;;;25.90;19.50;;;7.90;70.40;;;;;;5091279;28;20201;-74
2022/01/03 00:15:01;;;;;;;30.03;22.23;;;7.80;1.00;;;;;;5091688;28;20205;-73
2022/01/03 00:17:28;;;;;;;34.57;24.70;;;7.60;1.00;;;;;;5091481;28;20205;-73
2022/01/03 00:19:57;;;;;;;30.33;24.03;;;7.60;1.00;;;;;;5091926;28;20206;-74
2022/01/03 00:22:25;;;;;;;34.90;25.13;;;7.60;99.10;;;;;;5091478;28;20280;-74
2022/01/03 00:25:03;;;;;;;35.07;25.33;;;7.60;99.90;;;;;;5091586;28;20618;-73
2022/01/03 00:27:40;;;;;;;42.97;28.20;;;7.50;99.90;;;;;;5091095;28;20299;-73
2022/01/03 00:30:09;;;;;;;37.83;27.87;;;7.40;99.90;;;;;;5091395;28;20276;-73
2022/01/03 00:32:39;;;;;;;37.90;29.60;;;7.40;99.90;;;;;;5091123;28;20615;-74
2022/01/03 00:35:09;;;;;;;43.47;28.93;;;7.40;99.90;;;;;;5091495;28;20254;-74
2022/01/03 00:37:36;;;;;;;39.80;29.93;;;7.30;99.90;;;;;;5091272;28;20255;-74
2022/01/03 00:40:05;;;;;;;49.17;32.50;;;7.30;99.90;;;;;;5091300;28;20669;-74
2022/01/03 00:42:32;;;;;;;47.97;36.50;;;7.30;99.90;;;;;;5091013;28;20217;-74
2022/01/03 00:45:01;;;;;;;61.13;46.53;;;7.20;99.90;;;;;;5091198;28;20300;-73
2022/01/03 00:47:32;;;;;;;57.73;46.33;;;7.20;99.90;;;;;;5090902;28;20661;-73
2022/01/03 00:49:59;;;;;;;63.53;49.77;;;7.20;1.00;;;;;;5090938;28;20290;-73
2022/01/03 00:52:28;;;;;;;59.93;44.80;;;7.20;1.00;;;;;;5090928;28;20201;-73
2022/01/03 00:54:55;;;;;;;60.63;46.00;;;7.10;1.00;;;;;;5091156;28;20198;-74
2022/01/03 00:57:31;;;;;;;54.93;43.20;;;7.10;1.00;;;;;;5090615;28;20201;-72
2022/01/03 01:00:04;;;;;;;51.33;40.60;;;7.20;1.00;;;;;;5091016;28;20201;-73
2022/01/03 01:02:36;;;;;;;58.70;45.03;;;7.20;1.00;;;;;;5090465;28;20254;-76
2022/01/03 01:05:04;;;;;;;58.60;44.33;;;7.20;1.00;;;;;;5090959;28;20202;-74
2022/01/03 01:07:33;;;;;;;50.47;39.53;;;7.20;1.00;;;;;;5090743;28;20259;-74
2022/01/03 01:10:03;;;;;;;50.63;36.97;;;7.30;1.00;;;;;;5090971;28;20229;-74
2022/01/03 01:12:31;;;;;;;53.63;40.53;;;7.30;1.00;;;;;;5090352;28;20251;-74
2022/01/03 01:14:59;;;;;;;52.73;36.93;;;7.30;1.00;;;;;;5078851;28;20305;-73
2022/01/03 01:17:27;;;;;;;40.47;32.33;;;7.30;99.90;;;;;;5070491;28;20202;-73
2022/01/03 01:19:55;;;;;;;51.40;38.87;;;7.30;99.90;;;;;;5070859;28;20283;-73
2022/01/03 01:22:22;;;;;;;48.83;35.70;;;7.20;99.90;;;;;;5070640;28;20204;-74
2022/01/03 01:25:11;;;;;;;51.93;36.00;;;7.10;99.90;;;;;;5070525;28;20271;-73
2022/01/03 01:27:47;;;;;;;44.90;34.27;;;7.00;99.90;;;;;;5073255;28;20237;-73
2022/01/03 01:30:15;;;;;;;45.30;33.37;;;7.00;99.90;;;;;;5075119;28;20232;-73
2022/01/03 01:32:47;;;;;;;40.67;33.90;;;7.00;99.90;;;;;;5075358;28;20206;-73
2022/01/03 01:35:15;;;;;;;47.10;34.57;;;7.00;99.90;;;;;;5075137;28;20206;-73
2022/01/03 01:37:45;;;;;;;40.23;34.40;;;7.20;99.90;;;;;;5074843;28;20685;-73
2022/01/03 01:40:15;;;;;;;46.67;32.90;;;7.00;99.90;;;;;;5074932;28;20202;-74
2022/01/03 01:42:45;;;;;;;40.40;31.20;;;7.00;99.90;;;;;;5074944;28;20700;-73
2022/01/03 01:45:12;;;;;;;40.57;31.37;;;7.00;99.90;;;;;;5074951;28;20245;-73
2022/01/03 01:47:41;;;;;;;42.70;30.33;;;6.90;99.90;;;;;;5074170;28;20206;-73
2022/01/03 01:50:10;;;;;;;37.63;28.93;;;6.80;99.90;;;;;;5074344;28;20279;-73
2022/01/03 01:52:38;;;;;;;36.87;27.47;;;6.80;99.90;;;;;;5073968;28;20974;-73
2022/01/03 01:55:08;;;;;;;35.97;25.50;;;6.70;99.90;;;;;;5074146;28;20682;-74
2022/01/03 01:57:54;;;;;;;34.77;25.57;;;6.70;99.90;;;;;;5074043;28;20580;-73
2022/01/03 02:00:21;;;;;;;31.47;22.93;;;6.60;99.90;;;;;;5073787;28;20252;-74
2022/01/03 02:03:05;;;;;;;27.63;23.37;;;6.70;1.00;;;;;;5074077;28;20210;-74
2022/01/03 02:05:37;;;;;;;33.07;23.93;;;6.60;1.00;;;;;;5073662;28;20206;-73
2022/01/03 02:08:12;;;;;;;29.80;19.43;;;6.60;1.00;;;;;;5074082;28;20206;-73
2022/01/03 02:10:42;;;;;;;27.57;20.57;;;6.60;1.00;;;;;;5073356;28;20229;-73
2022/01/03 02:13:11;;;;;;;24.30;16.67;;;6.60;1.00;;;;;;5073922;28;20213;-73
2022/01/03 02:15:39;;;;;;;22.87;18.73;;;6.70;1.00;;;;;;5073380;28;20202;-74
2022/01/03 02:18:06;;;;;;;24.73;16.37;;;6.70;1.00;;;;;;5074081;28;20295;-74
2022/01/03 02:20:35;;;;;;;24.47;17.23;;;6.70;1.00;;;;;;5073490;28;20275;-74
2022/01/03 02:23:03;;;;;;;25.77;19.00;;;6.70;1.00;;;;;;5073669;28;20259;-73
2022/01/03 02:25:30;;;;;;;22.47;15.93;;;6.70;1.00;;;;;;5073245;28;20226;-74
2022/01/03 02:27:59;;;;;;;31.50;17.77;;;6.70;1.00;;;;;;5073466;28;20256;-74
2022/01/03 02:30:29;;;;;;;24.53;18.27;;;6.80;99.90;;;;;;5073195;28;20589;-74
2022/01/03 02:32:56;;;;;;;21.80;15.90;;;6.70;99.90;;;;;;5073736;28;20202;-73
2022/01/03 02:35:24;;;;;;;19.13;17.03;;;6.70;99.90;;;;;;5073495;28;20649;-73
2022/01/03 02:37:54;;;;;;;21.13;16.70;;;6.70;99.90;;;;;;5073238;28;20198;-72
2022/01/03 02:40:22;;;;;;;20.40;16.47;;;6.70;99.90;;;;;;5073114;28;20246;-73
2022/01/03 02:42:50;;;;;;;22.17;16.47;;;6.70;4.90;;;;;;5073679;28;20263;-73
2022/01/03 02:45:19;;;;;;;29.50;14.90;;;6.70;1.00;;;;;;5073064;28;20210;-73
2022/01/03 02:47:48;;;;;;;20.23;14.10;;;6.70;1.00;;;;;;5073442;28;20277;-73
2022/01/03 02:50:17;;;;;;;20.67;14.77;;;6.80;1.00;;;;;;5073498;28;20202;-74
2022/01/03 02:52:44;;;;;;;20.17;15.07;;;6.80;1.00;;;;;;5073298;28;20674;-73
2022/01/03 02:55:14;;;;;;;21.07;15.30;;;6.70;1.00;;;;;;5073614;28;20202;-74
2022/01/03 02:57:43;;;;;;;20.07;13.97;;;6.80;1.00;;;;;;5073262;28;20202;-74
2022/01/03 03:00:13;;;;;;;23.83;14.97;;;6.80;99.90;;;;;;5073272;28;20626;-74
2022/01/03 03:02:40;;;;;;;16.47;14.20;;;6.60;99.90;;;;;;5072800;28;20661;-74
2022/01/03 03:05:09;;;;;;;17.33;12.83;;;6.50;1.00;;;;;;5072922;28;20211;-73
2022/01/03 03:07:37;;;;;;;16.40;13.93;;;6.60;1.00;;;;;;5072389;28;20323;-73
2022/01/03 03:10:06;;;;;;;23.53;15.30;;;6.60;1.00;;;;;;5073137;28;20202;-74
2022/01/03 03:12:35;;;;;;;20.67;14.37;;;6.60;1.00;;;;;;5072630;28;20210;-73
2022/01/03 03:15:02;;;;;;;17.23;11.70;;;6.50;1.00;;;;;;5072812;28;20259;-73
2022/01/03 03:17:29;;;;;;;16.00;13.30;;;6.60;1.00;;;;;;5072352;28;20264;-74
2022/01/03 03:19:59;;;;;;;12.90;11.60;;;6.60;1.00;;;;;;5072802;28;20218;-74
2022/01/03 03:22:28;;;;;;;16.20;11.80;;;6.60;1.00;;;;;;5072264;28;20283;-75
2022/01/03 03:25:01;;;;;;;14.20;11.87;;;6.60;1.00;;;;;;5072546;28;20206;-75
2022/01/03 03:27:28;;;;;;;20.10;12.03;;;6.50;1.00;;;;;;5072044;28;20267;-73
2022/01/03 03:29:58;;;;;;;20.53;14.70;;;6.40;1.00;;;;;;5072424;28;20259;-73
2022/01/03 03:32:27;;;;;;;16.73;12.07;;;6.40;1.00;;;;;;5072058;28;20229;-73
2022/01/03 03:34:55;;;;;;;15.83;13.23;;;6.30;1.00;;;;;;5075140;28;20244;-72
2022/01/03 03:37:22;;;;;;;15.60;13.17;;;6.30;1.00;;;;;;5071691;28;20558;-73
2022/01/03 03:39:49;;;;;;;17.03;13.30;;;6.20;1.00;;;;;;5078056;28;20282;-72
2022/01/03 03:42:17;;;;;;;21.80;15.10;;;6.10;1.00;;;;;;5092328;28;20621;-72
2022/01/03 03:44:45;;;;;;;22.17;13.27;;;6.10;1.00;;;;;;5092588;28;20239;-73
2022/01/03 03:47:14;;;;;;;19.00;14.93;;;6.20;1.00;;;;;;5092537;28;20231;-72
2022/01/03 03:49:41;;;;;;;33.37;28.10;;;6.30;1.00;;;;;;5091629;28;20624;-73
2022/01/03 03:52:09;;;;;;;35.13;29.77;;;6.30;1.00;;;;;;5083656;28;20242;-73
2022/01/03 03:54:36;;;;;;;37.27;31.10;;;6.40;1.00;;;;;;5085226;28;20213;-73
2022/01/03 03:57:05;;;;;;;44.13;38.97;;;6.30;1.00;;;;;;5092007;28;20202;-73
2022/01/03 03:59:32;;;;;;;45.93;40.93;;;6.40;1.00;;;;;;5091550;28;20690;-73
2022/01/03 04:01:59;;;;;;;53.97;42.40;;;6.30;1.00;;;;;;5092037;28;20232;-73
2022/01/03 04:04:28;;;;;;;51.27;41.40;;;6.30;1.00;;;;;;5091385;28;20251;-73
2022/01/03 04:06:56;;;;;;;51.77;44.07;;;6.30;1.00;;;;;;5091568;28;20206;-73
2022/01/03 04:09:23;;;;;;;49.40;42.17;;;6.30;1.00;;;;;;5085350;28;20282;-73
2022/01/03 04:11:50;;;;;;;49.93;41.87;;;6.30;1.00;;;;;;5091605;28;20271;-73
2022/01/03 04:14:17;;;;;;;56.37;45.77;;;6.40;1.00;;;;;;5091315;28;20738;-73
2022/01/03 04:16:45;;;;;;;55.17;46.07;;;6.40;1.00;;;;;;5091993;28;20288;-72
2022/01/03 04:19:12;;;;;;;58.73;47.77;;;6.50;1.00;;;;;;5091860;28;20209;-73
2022/01/03 04:21:41;;;;;;;57.93;51.60;;;6.80;1.00;;;;;;5091249;28;20205;-73
2022/01/03 04:24:09;;;;;;;52.97;47.27;;;7.00;99.90;;;;;;5091574;28;20661;-73
2022/01/03 04:26:38;;;;;;;60.20;53.20;;;7.10;1.00;;;;;;5090185;28;21010;-73
2022/01/03 04:29:06;;;;;;;69.93;55.17;;;7.10;1.00;;;;;;5090223;28;20300;-73
2022/01/03 04:31:33;;;;;;;63.93;53.07;;;7.10;1.00;;;;;;5090587;28;20276;-72
2022/01/03 04:34:01;;;;;;;57.27;49.70;;;7.00;1.00;;;;;;5091359;28;20240;-73
2022/01/03 04:36:29;;;;;;;62.43;52.17;;;7.10;1.00;;;;;;5090689;28;20255;-73
2022/01/03 04:38:57;;;;;;;65.77;52.03;;;7.20;1.00;;;;;;5091210;28;20330;-73
2022/01/03 04:41:24;;;;;;;56.77;48.40;;;6.90;1.00;;;;;;5089806;28;20240;-73
2022/01/03 04:43:51;;;;;;;56.10;47.70;;;6.90;1.00;;;;;;5091254;28;20296;-73
2022/01/03 04:46:19;;;;;;;55.20;45.53;;;6.80;1.00;;;;;;5090455;28;20209;-74
2022/01/03 04:48:46;;;;;;;49.70;41.63;;;6.70;25.50;;;;;;5091044;28;20209;-74
2022/01/03 04:51:13;;;;;;;42.77;36.13;;;6.50;99.90;;;;;;5091101;28;20275;-74
2022/01/03 04:53:40;;;;;;;39.80;34.93;;;6.40;99.90;;;;;;5091246;28;20209;-73
2022/01/03 04:56:11;;;;;;;44.00;35.90;;;6.30;1.00;;;;;;5091305;28;20250;-72
2022/01/03 04:58:39;;;;;;;40.27;33.23;;;6.30;1.00;;;;;;5076518;28;20206;-72
2022/01/03 05:01:06;;;;;;;42.13;33.03;;;6.30;1.00;;;;;;5090081;28;20213;-72
2022/01/03 05:03:34;;;;;;;44.63;34.10;;;6.40;1.00;;;;;;5090133;28;20210;-72
2022/01/03 05:06:02;;;;;;;32.17;27.67;;;6.40;1.00;;;;;;5090648;28;20700;-72
2022/01/03 05:08:29;;;;;;;39.37;30.43;;;6.40;1.00;;;;;;5090564;28;20230;-73
2022/01/03 05:10:56;;;;;;;38.57;29.90;;;6.40;1.00;;;;;;5090798;28;20554;-72
2022/01/03 05:13:24;;;;;;;38.33;31.37;;;6.40;99.90;;;;;;5090348;28;20255;-72
2022/01/03 05:15:51;;;;;;;40.87;31.43;;;6.40;99.90;;;;;;5089797;28;20210;-73
2022/01/03 05:18:18;;;;;;;36.60;30.70;;;6.40;99.90;;;;;;5089764;28;20205;-73
2022/01/03 05:20:45;;;;;;;38.87;30.10;;;6.30;99.90;;;;;;5091071;28;20210;-72
2022/01/03 05:23:13;;;;;;;34.47;29.63;;;6.30;99.90;;;;;;5090873;28;20209;-72
2022/01/03 05:25:40;;;;;;;30.63;26.67;;;6.30;99.90;;;;;;5090630;28;20653;-72
2022/01/03 05:28:07;;;;;;;34.60;27.90;;;6.30;99.90;;;;;;5087383;28;20206;-72
2022/01/03 05:30:36;;;;;;;37.90;30.13;;;6.30;99.90;;;;;;5078479;28;20205;-73
2022/01/03 05:33:04;;;;;;;33.97;26.03;;;6.30;99.90;;;;;;5090293;28;20285;-73
2022/01/03 05:35:31;;;;;;;34.47;26.17;;;6.20;99.90;;;;;;5089001;28;20202;-73
2022/01/03 05:37:58;;;;;;;34.60;28.27;;;6.20;99.90;;;;;;5088990;28;20201;-73
2022/01/03 05:40:25;;;;;;;31.33;27.93;;;6.20;99.90;;;;;;5089896;28;20197;-73
2022/01/03 05:42:52;;;;;;;32.03;25.57;;;6.10;99.90;;;;;;5090775;28;20721;-72
2022/01/03 05:45:19;;;;;;;36.73;26.33;;;6.10;99.90;;;;;;5090217;28;20738;-73
2022/01/03 05:47:48;;;;;;;32.13;24.60;;;6.10;99.90;;;;;;5090578;28;20197;-73
2022/01/03 05:50:16;;;;;;;31.30;24.80;;;6.10;99.90;;;;;;5091096;28;20205;-73
2022/01/03 05:52:43;;;;;;;30.93;25.00;;;6.10;99.90;;;;;;5089230;28;20715;-73
2022/01/03 05:55:11;;;;;;;31.97;26.53;;;6.10;99.90;;;;;;5090459;28;20262;-73
2022/01/03 05:57:39;;;;;;;32.10;26.10;;;6.10;99.90;;;;;;5089136;28;20209;-73
2022/01/03 06:00:10;;;;;;;31.27;24.70;;;6.00;99.90;;;;;;5090618;28;20250;-73
2022/01/03 06:02:41;;;;;;;28.07;22.97;;;6.10;99.90;;;;;;5090345;28;20240;-73
2022/01/03 06:05:17;;;;;;;29.00;24.70;;;6.10;99.90;;;;;;5090385;28;20241;-73
2022/01/03 06:07:44;;;;;;;30.77;25.17;;;6.10;99.90;;;;;;5090372;28;20240;-73
2022/01/03 06:10:16;;;;;;;29.17;23.20;;;6.00;99.90;;;;;;5091098;28;20251;-73
2022/01/03 06:12:45;;;;;;;28.17;21.73;;;6.10;99.90;;;;;;5091845;28;20229;-73
2022/01/03 06:15:13;;;;;;;30.43;22.37;;;6.20;99.90;;;;;;5094567;28;20248;-73
2022/01/03 06:17:41;;;;;;;32.60;22.03;;;6.30;99.90;;;;;;5094182;28;20302;-73
2022/01/03 06:20:11;;;;;;;32.67;23.97;;;6.40;99.90;;;;;;5093810;28;20256;-74
2022/01/03 06:22:40;;;;;;;41.27;24.07;;;6.40;99.90;;;;;;5093902;28;20205;-73
2022/01/03 06:25:08;;;;;;;31.87;23.37;;;6.50;99.90;;;;;;5094244;28;20232;-74
2022/01/03 06:27:35;;;;;;;32.90;25.23;;;6.50;99.90;;;;;;5093967;28;20626;-74
2022/01/03 06:30:02;;;;;;;34.30;27.73;;;6.50;99.90;;;;;;5093912;28;20749;-73
2022/01/03 06:32:29;;;;;;;39.80;26.67;;;6.60;99.90;;;;;;5093379;28;20233;-74
2022/01/03 06:34:56;;;;;;;36.70;26.83;;;6.60;99.90;;;;;;5093835;28;20252;-73
2022/01/03 06:37:24;;;;;;;32.60;24.20;;;6.60;99.90;;;;;;5093809;28;20672;-73
2022/01/03 06:39:51;;;;;;;35.43;23.37;;;6.60;99.90;;;;;;5094067;28;20205;-73
2022/01/03 06:42:18;;;;;;;32.13;23.53;;;6.60;99.90;;;;;;5086896;28;20255;-73
2022/01/03 06:44:46;;;;;;;32.80;21.77;;;6.60;1.00;;;;;;5080344;28;20270;-72
2022/01/03 06:47:13;;;;;;;28.33;21.03;;;6.60;1.00;;;;;;5088914;28;20226;-72
2022/01/03 06:49:40;;;;;;;28.80;19.17;;;6.60;1.00;;;;;;5092729;28;20202;-73
2022/01/03 06:52:07;;;;;;;31.90;20.00;;;6.30;1.00;;;;;;5093032;28;20732;-72
2022/01/03 06:54:36;;;;;;;25.43;18.23;;;6.10;1.00;;;;;;5092837;28;20262;-72
2022/01/03 06:57:03;;;;;;;33.17;20.57;;;6.00;1.00;;;;;;5093401;28;20349;-72
2022/01/03 06:59:30;;;;;;;27.20;17.57;;;5.90;99.90;;;;;;5086808;28;20678;-72
2022/01/03 07:01:57;;;;;;;37.03;20.00;;;6.00;1.00;;;;;;5085808;28;20217;-73
2022/01/03 07:04:24;;;;;;;32.40;19.53;;;5.90;1.00;;;;;;5092689;28;20209;-73
2022/01/03 07:06:51;;;;;;;36.13;21.00;;;6.00;1.00;;;;;;5092684;28;20217;-72
2022/01/03 07:09:18;;;;;;;31.13;20.57;;;6.00;73.90;;;;;;5092619;28;20210;-72
2022/01/03 07:11:46;;;;;;;28.70;20.27;;;6.10;99.90;;;;;;5092755;28;20781;-72
2022/01/03 07:19:46;;;;;;;29.20;18.40;;;6.30;1.00;;;;;;5080018;28;20571;-71
2022/01/03 07:22:13;;;;;;;28.33;17.93;;;6.30;1.00;;;;;;5092719;28;20247;-72
2022/01/03 07:24:41;;;;;;;24.83;17.23;;;6.40;1.00;;;;;;5091317;28;20201;-72
2022/01/03 07:27:11;;;;;;;25.93;18.10;;;6.50;1.00;;;;;;5092464;28;20213;-72
2022/01/03 07:29:39;;;;;;;28.20;18.20;;;6.50;1.00;;;;;;5092154;28;20258;-73
2022/01/03 07:32:07;;;;;;;28.27;19.03;;;6.50;12.30;;;;;;5092184;28;20229;-73
2022/01/03 07:34:34;;;;;;;35.87;20.30;;;6.40;99.90;;;;;;5091387;28;20205;-73
2022/01/03 07:37:01;;;;;;;32.03;18.37;;;6.40;99.90;;;;;;5081956;28;20262;-73
2022/01/03 07:39:30;;;;;;;34.73;18.40;;;6.40;99.90;;;;;;5087911;28;20623;-73
2022/01/03 07:41:57;;;;;;;27.73;18.97;;;6.40;99.90;;;;;;5076883;28;20237;-73
2022/01/03 07:44:26;;;;;;;28.77;19.43;;;6.40;99.90;;;;;;5087149;28;20319;-73
2022/01/03 07:46:54;;;;;;;30.77;17.73;;;6.30;1.00;;;;;;5081253;28;20263;-73
2022/01/03 07:49:21;;;;;;;28.77;17.17;;;6.40;1.00;;;;;;5092165;28;20220;-73
2022/01/03 07:51:48;;;;;;;25.70;16.30;;;6.50;1.00;;;;;;5072228;28;20210;-73
2022/01/03 07:54:15;;;;;;;34.87;17.30;;;6.60;1.00;;;;;;5072443;28;20202;-73
2022/01/03 07:56:42;;;;;;;26.80;15.53;;;6.50;1.00;;;;;;5077903;28;20218;-73
2022/01/03 07:59:09;;;;;;;44.00;18.97;;;6.60;5.90;;;;;;5079106;28;20266;-73
2022/01/03 08:01:40;;;;;;;55.43;22.13;;;6.40;16.50;;;;;;5090357;28;20209;-74
2022/01/03 08:04:07;;;;;;;44.23;19.33;;;6.30;1.00;;;;;;5072921;28;20214;-74
2022/01/03 08:06:35;;;;;;;42.97;22.50;;;6.30;1.00;;;;;;5070655;28;20271;-72
2022/01/03 08:09:02;;;;;;;32.57;18.53;;;6.30;1.00;;;;;;5071769;28;20239;-73
2022/01/03 08:11:29;;;;;;;40.20;18.10;;;6.50;1.00;;;;;;5082492;28;20210;-73
2022/01/03 08:13:56;;;;;;;47.50;19.97;;;6.40;1.00;;;;;;5080034;28;20717;-72
2022/01/03 08:16:23;;;;;;;37.17;17.77;;;6.30;1.00;;;;;;5080986;28;20212;-72
2022/01/03 08:18:51;;;;;;;47.80;19.10;;;6.30;1.00;;;;;;5075280;28;20207;-73
2022/01/03 08:21:18;;;;;;;54.70;18.60;;;6.40;1.00;;;;;;5091993;28;20718;-73
2022/01/03 08:23:45;;;;;;;25.20;17.40;;;6.40;1.00;;;;;;5091458;28;20259;-74
2022/01/03 08:26:12;;;;;;;47.27;18.27;;;6.70;1.00;;;;;;5084702;28;20205;-73
2022/01/03 08:28:39;;;;;;;46.10;19.07;;;7.00;1.00;;;;;;5083576;28;20206;-75
2022/01/03 08:31:06;;;;;;;38.97;18.90;;;6.90;99.90;;;;;;5081003;28;20292;-73
2022/01/03 08:33:34;;;;;;;32.13;18.13;;;6.90;1.00;;;;;;5087548;28;20229;-73
2022/01/03 08:36:03;;;;;;;30.30;16.27;;;7.00;1.00;;;;;;5087299;28;20286;-73
2022/01/03 08:38:30;;;;;;;20.80;16.10;;;7.10;99.90;;;;;;5080186;28;20231;-73
2022/01/03 08:40:57;;;;;;;22.67;15.60;;;7.20;99.90;;;;;;5091570;28;20202;-73
2022/01/03 08:43:24;;;;;;;20.00;15.03;;;7.40;1.00;;;;;;5083531;28;20696;-72
2022/01/03 08:45:51;;;;;;;19.30;14.57;;;7.60;1.00;;;;;;5077193;28;20201;-73
2022/01/03 08:48:18;;;;;;;24.73;17.37;;;7.80;1.00;;;;;;5086012;28;20205;-73
2022/01/03 08:50:45;;;;;;;24.87;16.13;;;8.00;1.00;;;;;;5094830;28;20206;-74
2022/01/03 08:53:14;;;;;;;22.57;16.50;;;8.10;1.00;;;;;;5077478;28;20291;-73
2022/01/03 08:55:41;;;;;;;31.30;16.97;;;8.10;1.00;;;;;;5076127;28;20343;-74
2022/01/03 08:58:08;;;;;;;22.20;16.00;;;8.10;1.00;;;;;;5082469;28;20264;-73
2022/01/03 09:00:36;;;;;;;21.00;15.13;;;8.40;1.00;;;;;;5072342;28;20248;-72
2022/01/03 09:03:03;;;;;;;20.50;14.77;;;8.50;1.00;;;;;;5087001;28;20318;-74
2022/01/03 09:05:30;;;;;;;22.43;13.83;;;8.30;1.00;;;;;;5084461;28;20213;-73
2022/01/03 09:07:57;;;;;;;17.87;14.57;;;7.80;1.00;;;;;;5090757;28;20289;-74
2022/01/03 09:10:26;;;;;;;19.53;13.37;;;8.30;1.00;;;;;;5090898;28;20630;-73
2022/01/03 09:12:53;;;;;;;16.50;13.20;;;8.80;1.00;;;;;;5086038;28;20225;-73
2022/01/03 09:15:20;;;;;;;18.10;13.60;;;9.10;1.00;;;;;;5069526;28;20202;-71
2022/01/03 09:17:48;;;;;;;22.00;14.13;;;9.30;1.00;;;;;;5070559;28;20252;-74
2022/01/03 09:20:15;;;;;;;22.10;14.03;;;10.00;1.00;;;;;;5070775;28;20267;-73
2022/01/03 09:22:45;;;;;;;14.07;11.83;;;10.10;1.00;;;;;;5070316;28;20264;-73
2022/01/03 09:30:42;;;;;;;15.30;11.70;;;11.00;1.00;;;;;;5070455;28;20262;-74
2022/01/03 09:33:09;;;;;;;14.47;11.00;;;10.30;1.00;;;;;;5070569;28;20762;-74
2022/01/03 09:35:37;;;;;;;14.73;10.93;;;9.90;1.00;;;;;;5070304;28;20622;-75
2022/01/03 09:38:04;;;;;;;23.13;13.67;;;10.20;1.00;;;;;;5070583;28;20209;-74
2022/01/03 09:40:31;;;;;;;16.33;12.20;;;10.80;1.00;;;;;;5069422;28;20202;-73
2022/01/03 09:43:02;;;;;;;14.30;11.70;;;12.00;1.00;;;;;;5070231;28;20202;-74
2022/01/03 09:45:32;;;;;;;16.67;12.50;;;12.90;1.00;;;;;;5070252;28;20206;-74
2022/01/03 09:48:01;;;;;;;17.93;11.20;;;13.70;1.00;;;;;;5074609;28;20251;-73
2022/01/03 09:50:28;;;;;;;15.93;11.53;;;13.10;1.00;;;;;;5077396;28;20218;-73
2022/01/03 09:52:56;;;;;;;12.83;10.10;;;12.50;1.00;;;;;;5092912;28;20342;-73
2022/01/03 09:55:24;;;;;;;11.40;9.82;;;12.50;1.00;;;;;;5078020;28;20775;-73
2022/01/03 09:57:51;;;;;;;14.55;10.25;;;13.40;1.00;;;;;;5073454;28;20627;-74
2022/01/03 10:00:22;;;;;;;16.02;9.32;;;12.80;1.00;;;;;;5074044;28;20202;-74
2022/01/03 10:02:49;;;;;;;12.10;10.52;;;14.50;1.00;;;;;;5073971;28;20213;-73
2022/01/03 10:05:17;;;;;;;12.52;9.32;;;14.70;1.00;;;;;;5074047;28;20599;-74
2022/01/03 10:07:44;;;;;;;14.48;9.52;;;14.50;1.00;;;;;;5073879;28;20629;-73
2022/01/03 10:10:13;;;;;;;11.95;8.98;;;14.10;1.00;;;;;;5076360;28;20216;-73
2022/01/03 10:12:40;;;;;;;9.82;8.23;;;15.40;1.00;;;;;;5073217;28;20206;-73
2022/01/03 10:15:09;;;;;;;14.43;8.20;;;15.80;1.00;;;;;;5074162;28;20275;-74
2022/01/03 10:17:39;;;;;;;12.43;7.57;;;16.10;1.00;;;;;;5073538;28;20625;-73
2022/01/03 10:20:10;;;;;;;11.27;7.18;;;15.50;1.00;;;;;;5073609;28;20263;-74
2022/01/03 10:22:38;;;;;;;11.38;6.10;;;15.20;1.00;;;;;;5073122;28;20285;-72
2022/01/03 10:25:12;;;;;;;9.75;6.38;;;14.60;1.00;;;;;;5073945;28;20206;-75
2022/01/03 10:27:46;;;;;;;6.97;4.93;;;15.60;1.00;;;;;;5073071;28;20748;-73
2022/01/03 10:30:13;;;;;;;7.20;5.72;;;15.10;1.00;;;;;;5073665;28;21101;-70
2022/01/03 10:32:44;;;;;;;14.40;6.50;;;15.90;1.00;;;;;;5073405;28;20210;-73
2022/01/03 10:35:15;;;;;;;9.82;6.22;;;16.70;1.00;;;;;;5073582;28;20584;-71
2022/01/03 10:37:42;;;;;;;13.90;6.50;;;16.70;1.00;;;;;;5073543;28;20247;-72
2022/01/03 10:40:21;;;;;;;9.48;6.53;;;16.30;1.00;;;;;;5073805;28;20221;-72
2022/01/03 10:42:49;;;;;;;8.05;5.88;;;15.10;1.00;;;;;;5073475;28;20232;-72
2022/01/03 10:45:28;;;;;;;11.48;6.93;;;14.30;1.00;;;;;;5073439;28;20661;-72
2022/01/03 10:47:57;;;;;;;11.05;5.75;;;15.60;1.00;;;;;;5073455;28;20552;-72
2022/01/03 10:50:24;;;;;;;8.77;6.53;;;15.30;1.00;;;;;;5073502;28;20290;-72
2022/01/03 10:52:52;;;;;;;7.90;5.80;;;14.70;1.00;;;;;;5076736;28;20665;-72
2022/01/03 10:55:22;;;;;;;8.60;5.93;;;13.30;1.00;;;;;;5073833;28;20206;-72
2022/01/03 10:57:53;;;;;;;7.75;6.32;;;12.00;1.00;;;;;;5089520;28;20289;-72
2022/01/03 11:00:22;;;;;;;10.30;6.63;;;11.90;1.00;;;;;;5092378;28;20202;-75
2022/01/03 11:03:22;;;;;;;10.05;7.18;;;11.90;1.00;;;;;;5093619;28;20255;-75
2022/01/03 11:05:53;;;;;;;8.55;7.60;;;11.60;1.00;;;;;;5086601;28;20212;-74
2022/01/03 11:11:07;;;;;;;11.97;6.20;;;11.60;1.00;;;;;;5088680;28;20688;-74
2022/01/03 11:13:38;;;;;;;11.03;6.73;;;11.70;1.00;;;;;;5091559;28;20240;-75
2022/01/03 11:16:08;;;;;;;9.60;6.97;;;11.90;1.00;;;;;;5093189;28;20262;-75
2022/01/03 11:18:38;;;;;;;7.10;6.40;;;12.00;1.00;;;;;;5092198;28;20676;-75
2022/01/03 11:21:11;;;;;;;11.18;7.40;;;12.00;1.00;;;;;;5093051;28;20616;-76
2022/01/03 11:23:39;;;;;;;12.05;8.02;;;12.00;1.00;;;;;;5092572;28;20201;-75
2022/01/03 11:26:08;;;;;;;15.15;8.63;;;12.10;1.00;;;;;;5092931;28;20271;-75
2022/01/03 11:28:35;;;;;;;14.23;8.80;;;12.10;1.00;;;;;;5092483;28;20201;-74
2022/01/03 11:31:03;;;;;;;12.18;8.40;;;12.10;1.00;;;;;;5087587;28;20585;-74
2022/01/03 11:33:31;;;;;;;9.40;6.70;;;12.10;1.00;;;;;;5078674;28;20317;-75
2022/01/03 11:36:01;;;;;;;12.10;8.15;;;12.20;1.00;;;;;;5076124;28;20213;-74
2022/01/03 11:38:30;;;;;;;11.93;7.18;;;12.30;1.00;;;;;;5088243;28;20232;-75
2022/01/03 11:41:01;;;;;;;10.37;9.07;;;12.30;1.00;;;;;;5072455;28;20569;-75
2022/01/03 11:43:29;;;;;;;11.02;8.00;;;12.50;1.00;;;;;;5071926;28;20218;-74
2022/01/03 11:45:57;;;;;;;12.90;8.43;;;12.70;1.00;;;;;;5082864;28;20759;-75
2022/01/03 11:48:26;;;;;;;10.38;7.15;;;12.90;1.00;;;;;;5088187;28;20745;-75
2022/01/03 11:50:54;;;;;;;8.80;7.43;;;13.10;1.00;;;;;;5072683;28;20238;-75
2022/01/03 11:53:24;;;;;;;12.52;8.93;;;13.20;1.00;;;;;;5072275;28;20276;-75
2022/01/03 11:55:55;;;;;;;9.05;7.63;;;13.30;1.00;;;;;;5080411;28;20669;-75
2022/01/03 11:58:48;;;;;;;13.90;9.07;;;13.30;1.00;;;;;;5092691;28;20202;-75
2022/01/03 12:04:12;;;;;;;9.68;5.38;;;13.40;1.00;;;;;;5042255;28;20292;-75
2022/01/03 12:06:40;;;;;;;8.07;7.28;;;13.60;1.00;;;;;;5071518;28;20201;-75
2022/01/03 12:09:10;;;;;;;12.13;5.70;;;13.70;1.00;;;;;;5073631;28;20551;-75
2022/01/03 12:11:45;;;;;;;11.60;7.05;;;13.70;1.00;;;;;;5091446;28;20208;-78
2022/01/03 12:14:16;;;;;;;13.10;2.95;;;13.80;1.00;;;;;;5086263;28;20277;-75
2022/01/03 12:16:48;;;;;;;9.63;3.17;;;13.70;1.00;;;;;;5078787;28;20206;-75
2022/01/03 12:19:30;;;;;;;8.20;3.50;;;13.90;1.00;;;;;;5071877;28;20210;-73
2022/01/03 12:21:59;;;;;;;6.47;3.22;;;13.80;1.00;;;;;;5089422;28;20258;-73
2022/01/03 12:24:48;;;;;;;7.80;3.45;;;13.80;1.00;;;;;;5091224;28;20201;-76
2022/01/03 12:27:37;;;;;;;9.48;3.38;;;14.10;1.00;;;;;;5091485;28;20258;-76
2022/01/03 12:30:09;;;;;;;7.60;3.22;;;13.90;1.00;;;;;;5088688;28;20213;-74
2022/01/03 12:32:37;;;;;;;5.20;2.58;;;14.00;1.00;;;;;;5091547;28;20201;-74
2022/01/03 12:35:20;;;;;;;5.55;2.67;;;14.10;1.00;;;;;;5091563;28;20307;-74
2022/01/03 12:38:08;;;;;;;5.75;2.63;;;14.20;1.00;;;;;;5091160;28;20284;-74
2022/01/03 12:40:46;;;;;;;5.88;3.03;;;14.00;1.00;;;;;;5091111;28;20322;-74
2022/01/03 12:43:14;;;;;;;7.93;2.80;;;14.20;1.00;;;;;;5091241;28;20377;-74
2022/01/03 12:45:59;;;;;;;7.82;2.90;;;14.30;1.00;;;;;;5090639;28;20205;-73
2022/01/03 12:48:32;;;;;;;5.70;2.60;;;14.30;1.00;;;;;;5090880;28;20576;-74
2022/01/03 12:51:17;;;;;;;9.55;3.10;;;14.40;1.00;;;;;;5091287;28;20205;-74
2022/01/03 12:53:55;;;;;;;7.90;3.17;;;14.30;1.00;;;;;;5084137;28;20230;-74
2022/01/03 12:56:32;;;;;;;5.10;1.98;;;14.20;1.00;;;;;;5070739;28;20292;-73
2022/01/03 12:59:13;;;;;;;5.03;2.47;;;14.40;1.00;;;;;;5089384;28;20209;-74
2022/01/03 13:01:41;;;;;;;8.68;3.45;;;14.20;1.00;;;;;;5090261;28;20201;-74
2022/01/03 13:04:25;;;;;;;6.38;2.83;;;14.20;1.00;;;;;;5089531;28;20266;-74
2022/01/03 13:07:01;;;;;;;4.65;1.95;;;14.20;1.00;;;;;;5090298;28;20196;-74
2022/01/03 13:09:28;;;;;;;6.57;2.70;;;14.40;1.00;;;;;;5087633;28;20197;-73
2022/01/03 13:11:59;;;;;;;4.25;1.65;;;14.40;1.00;;;;;;5090273;28;20259;-74